createdAt,value
2022-10-19T00:01:21.718Z,25.88
2022-10-19T00:03:57.652Z,27.92
2022-10-19T00:06:38.997Z,23.95
2022-10-19T00:09:13.839Z,29.27
2022-10-19T00:11:44.240Z,27.30
2022-10-19T00:14:20.330Z,26.05
2022-10-19T00:16:52.385Z,25.55
2022-10-19T00:19:24.230Z,24.83
2022-10-19T00:24:27.315Z,25.50
2022-10-19T00:26:53.922Z,20.85
2022-10-19T00:29:20.652Z,22.75
2022-10-19T00:31:50.947Z,24.10
2022-10-19T00:34:18.049Z,25.27
2022-10-19T00:36:45.040Z,24.33
2022-10-19T00:39:13.316Z,25.50
2022-10-19T00:41:45.524Z,25.52
2022-10-19T00:44:12.075Z,23.92
2022-10-19T00:46:48.742Z,24.15
2022-10-19T00:49:28.394Z,25.65
2022-10-19T00:52:04.576Z,26.08
2022-10-19T00:54:36.396Z,22.88
2022-10-19T00:59:42.919Z,23.48
2022-10-19T01:02:09.517Z,24.75
2022-10-19T01:04:44.547Z,32.20
2022-10-19T01:07:11.828Z,28.75
2022-10-19T01:09:38.368Z,25.20
2022-10-19T01:12:19.668Z,28.38
2022-10-19T01:15:11.858Z,25.00
2022-10-19T01:20:42.723Z,29.27
2022-10-19T01:23:31.603Z,24.52
2022-10-19T01:26:18.676Z,25.80
2022-10-19T01:29:04.017Z,28.25
2022-10-19T01:31:49.072Z,28.40
2022-10-19T01:34:34.520Z,27.00
2022-10-19T01:37:10.018Z,28.08
2022-10-19T01:39:46.407Z,28.30
2022-10-19T01:42:36.944Z,23.13
2022-10-19T01:45:09.676Z,26.70
2022-10-19T01:47:42.432Z,26.00
2022-10-19T01:50:23.503Z,26.15
2022-10-19T01:52:51.568Z,22.85
2022-10-19T01:55:19.899Z,25.85
2022-10-19T01:57:52.182Z,22.08
2022-10-19T02:00:25.543Z,27.30
2022-10-19T02:02:54.657Z,25.45
2022-10-19T02:05:26.900Z,23.65
2022-10-19T02:07:58.525Z,24.05
2022-10-19T02:10:26.022Z,28.02
2022-10-19T02:12:55.404Z,23.92
2022-10-19T02:15:25.928Z,24.02
2022-10-19T02:17:59.765Z,21.30
2022-10-19T02:20:28.123Z,23.00
2022-10-19T02:22:54.968Z,23.00
2022-10-19T02:25:23.865Z,23.88
2022-10-19T02:27:54.023Z,22.83
2022-10-19T02:30:22.544Z,23.42
2022-10-19T02:32:50.119Z,21.60
2022-10-19T02:35:19.545Z,24.02
2022-10-19T02:37:50.558Z,29.60
2022-10-19T02:40:17.474Z,22.20
2022-10-19T02:43:03.751Z,24.33
2022-10-19T02:45:37.572Z,20.98
2022-10-19T02:48:17.576Z,19.95
2022-10-19T02:50:45.339Z,19.33
2022-10-19T02:53:11.869Z,24.13
2022-10-19T02:58:09.490Z,21.67
2022-10-19T03:00:36.411Z,22.70
2022-10-19T03:03:05.976Z,24.55
2022-10-19T03:05:32.524Z,24.48
2022-10-19T03:08:05.150Z,23.30
2022-10-19T03:10:32.014Z,22.52
2022-10-19T03:12:58.691Z,22.15
2022-10-19T03:15:31.590Z,23.10
2022-10-19T03:18:06.909Z,26.65
2022-10-19T03:20:36.480Z,28.27
2022-10-19T03:23:03.109Z,27.55
2022-10-19T03:25:30.822Z,28.75
2022-10-19T03:27:57.413Z,27.00
2022-10-19T03:30:23.946Z,28.42
2022-10-19T03:32:50.648Z,29.30
2022-10-19T03:35:28.331Z,29.23
2022-10-19T03:37:54.882Z,24.55
2022-10-19T03:40:21.489Z,28.83
2022-10-19T03:42:52.431Z,31.40
2022-10-19T03:45:20.432Z,36.10
2022-10-19T03:47:50.037Z,28.10
2022-10-19T03:50:22.541Z,33.08
2022-10-19T03:52:49.752Z,28.98
2022-10-19T03:55:17.387Z,25.00
2022-10-19T03:57:46.181Z,27.80
2022-10-19T04:00:13.317Z,35.42
2022-10-19T04:02:40.059Z,30.63
2022-10-19T04:05:07.290Z,29.00
2022-10-19T04:07:34.060Z,26.50
2022-10-19T04:10:00.687Z,27.80
2022-10-19T04:12:28.460Z,25.85
2022-10-19T04:14:57.921Z,27.35
2022-10-19T04:17:25.720Z,27.58
2022-10-19T04:19:52.331Z,29.95
2022-10-19T04:22:19.005Z,29.95
2022-10-19T04:24:51.468Z,27.00
2022-10-19T04:27:18.202Z,30.20
2022-10-19T04:29:45.678Z,27.35
2022-10-19T04:32:12.226Z,24.65
2022-10-19T04:34:40.048Z,27.25
2022-10-19T04:37:06.827Z,24.95
2022-10-19T04:39:33.518Z,28.77
2022-10-19T04:42:00.112Z,27.67
2022-10-19T04:44:30.158Z,24.20
2022-10-19T04:46:58.368Z,25.17
2022-10-19T04:49:25.079Z,24.33
2022-10-19T04:51:51.669Z,24.02
2022-10-19T04:54:18.307Z,28.20
2022-10-19T04:56:45.282Z,28.90
2022-10-19T04:59:12.052Z,33.55
2022-10-19T05:01:41.301Z,28.65
2022-10-19T05:04:11.669Z,25.33
2022-10-19T05:06:38.304Z,26.38
2022-10-19T05:09:04.795Z,33.63
2022-10-19T05:11:31.312Z,32.88
2022-10-19T05:13:57.766Z,26.00
2022-10-19T05:16:40.876Z,23.42
2022-10-19T05:19:07.456Z,27.02
2022-10-19T05:21:34.057Z,25.73
2022-10-19T05:24:00.652Z,26.55
2022-10-19T05:26:29.104Z,27.70
2022-10-19T05:28:59.446Z,27.25
2022-10-19T05:31:31.287Z,24.75
2022-10-19T05:33:58.475Z,24.23
2022-10-19T05:36:36.746Z,30.33
2022-10-19T05:39:12.553Z,24.08
2022-10-19T05:41:39.376Z,23.55
2022-10-19T05:44:06.406Z,26.00
2022-10-19T05:46:33.727Z,29.25
2022-10-19T05:49:00.693Z,24.40
2022-10-19T05:51:28.360Z,28.92
2022-10-19T05:53:58.468Z,33.97
2022-10-19T05:56:28.289Z,30.58
2022-10-19T05:58:59.985Z,25.30
2022-10-19T06:01:27.838Z,26.02
2022-10-19T06:03:56.766Z,30.67
2022-10-19T06:06:23.969Z,30.60
2022-10-19T06:08:51.577Z,25.40
2022-10-19T06:11:23.164Z,29.55
2022-10-19T06:13:58.195Z,30.92
2022-10-19T06:16:26.618Z,28.77
2022-10-19T06:18:54.428Z,29.20
2022-10-19T06:21:25.114Z,29.98
2022-10-19T06:23:58.860Z,24.92
2022-10-19T06:26:26.554Z,30.40
2022-10-19T06:28:56.546Z,27.98
2022-10-19T06:31:23.007Z,29.50
2022-10-19T06:33:49.803Z,26.35
2022-10-19T06:36:19.751Z,29.85
2022-10-19T06:38:47.276Z,24.58
2022-10-19T06:41:14.201Z,28.95
2022-10-19T06:43:42.941Z,29.05
2022-10-19T06:46:25.743Z,25.35
2022-10-19T06:48:57.020Z,36.08
2022-10-19T06:51:25.597Z,23.98
2022-10-19T06:53:57.109Z,23.98
2022-10-19T06:56:26.922Z,25.27
2022-10-19T06:58:54.399Z,26.25
2022-10-19T07:01:21.618Z,27.98
2022-10-19T07:03:50.815Z,26.02
2022-10-19T07:06:20.200Z,25.00
2022-10-19T07:08:47.042Z,27.73
2022-10-19T07:11:22.414Z,30.85
2022-10-19T07:13:49.325Z,22.20
2022-10-19T07:16:20.979Z,24.63
2022-10-19T07:18:49.646Z,23.85
2022-10-19T07:21:17.288Z,23.35
2022-10-19T07:23:45.442Z,26.75
2022-10-19T07:26:15.886Z,29.48
2022-10-19T07:28:45.212Z,22.25
2022-10-19T07:31:14.109Z,23.92
2022-10-19T07:33:49.505Z,29.80
2022-10-19T07:36:16.493Z,37.30
2022-10-19T07:38:45.093Z,25.95
2022-10-19T07:41:14.985Z,29.67
2022-10-19T07:43:43.680Z,33.80
2022-10-19T07:46:33.977Z,36.67
2022-10-19T07:49:04.138Z,33.40
2022-10-19T07:51:31.353Z,38.22
2022-10-19T07:53:59.377Z,28.13
2022-10-19T07:56:27.425Z,35.45
2022-10-19T07:58:55.830Z,31.42
2022-10-19T08:01:29.771Z,34.20
2022-10-19T08:06:48.389Z,24.52
2022-10-19T08:09:47.194Z,33.10
2022-10-19T08:12:14.590Z,28.73
2022-10-19T08:14:44.502Z,34.00
2022-10-19T08:17:17.664Z,31.58
2022-10-19T08:19:47.235Z,30.73
2022-10-19T08:22:19.519Z,36.17
2022-10-19T08:24:46.497Z,41.72
2022-10-19T08:27:14.953Z,37.10
2022-10-19T08:29:47.258Z,34.72
2022-10-19T08:32:23.061Z,32.85
2022-10-19T08:34:49.760Z,28.58
2022-10-19T08:37:25.829Z,44.40
2022-10-19T08:40:03.911Z,36.28
2022-10-19T08:42:50.966Z,39.92
2022-10-19T08:48:30.119Z,37.65
2022-10-19T08:50:58.682Z,38.83
2022-10-19T08:53:37.437Z,37.22
2022-10-19T08:56:51.708Z,37.90
2022-10-19T08:59:46.534Z,43.47
2022-10-19T09:02:24.687Z,40.78
2022-10-19T09:05:00.649Z,44.17
2022-10-19T09:07:31.025Z,43.05
2022-10-19T09:10:02.444Z,35.90
2022-10-19T09:12:58.846Z,31.40
2022-10-19T09:15:49.898Z,31.20
2022-10-19T09:18:22.495Z,39.22
2022-10-19T09:20:55.319Z,40.70
2022-10-19T09:23:27.500Z,34.85
2022-10-19T09:25:56.331Z,36.08
2022-10-19T09:28:44.239Z,33.65
2022-10-19T09:31:22.557Z,28.20
2022-10-19T09:33:55.661Z,46.20
2022-10-19T09:36:39.307Z,45.88
2022-10-19T09:39:12.776Z,31.17
2022-10-19T09:42:07.774Z,27.95
2022-10-19T09:44:37.683Z,41.03
2022-10-19T09:47:36.419Z,38.75
2022-10-19T09:50:23.646Z,35.03
2022-10-19T09:52:55.281Z,39.22
2022-10-19T09:56:00.712Z,36.97
2022-10-19T09:58:33.245Z,33.65
2022-10-19T10:01:00.913Z,41.08
2022-10-19T10:03:33.336Z,37.13
2022-10-19T10:06:08.753Z,35.15
2022-10-19T10:08:46.974Z,41.72
2022-10-19T10:11:33.677Z,31.42
2022-10-19T10:14:09.142Z,45.58
2022-10-19T10:16:36.772Z,40.55
2022-10-19T10:19:06.967Z,47.72
2022-10-19T10:21:55.626Z,39.55
2022-10-19T10:24:24.577Z,51.50
2022-10-19T10:26:53.805Z,41.15
2022-10-19T10:29:33.155Z,62.33
2022-10-19T10:32:13.514Z,38.47
2022-10-19T10:35:02.141Z,42.05
2022-10-19T10:37:47.855Z,47.85
2022-10-19T10:40:24.738Z,50.10
2022-10-19T10:42:53.897Z,54.08
2022-10-19T10:45:29.234Z,34.20
2022-10-19T10:47:58.255Z,52.30
2022-10-19T10:50:31.694Z,51.88
2022-10-19T10:53:27.733Z,48.08
2022-10-19T10:55:57.595Z,45.38
2022-10-19T10:58:55.066Z,41.10
2022-10-19T11:01:29.806Z,51.22
2022-10-19T11:04:01.336Z,58.20
2022-10-19T11:06:27.896Z,45.90
2022-10-19T11:09:08.312Z,47.28
2022-10-19T11:11:43.238Z,48.53
2022-10-19T11:14:28.388Z,49.17
2022-10-19T11:16:59.762Z,47.10
2022-10-19T11:19:35.096Z,44.95
2022-10-19T11:22:21.252Z,47.72
2022-10-19T11:25:19.265Z,49.50
2022-10-19T11:28:01.014Z,51.03
2022-10-19T11:30:32.821Z,42.63
2022-10-19T11:33:05.499Z,37.35
2022-10-19T11:35:45.855Z,45.67
2022-10-19T11:38:24.165Z,50.70
2022-10-19T11:41:18.671Z,55.95
2022-10-19T11:43:51.473Z,31.05
2022-10-19T11:46:28.554Z,50.95
2022-10-19T11:49:09.288Z,48.40
2022-10-19T11:52:03.650Z,49.17
2022-10-19T11:54:35.739Z,52.55
2022-10-19T11:57:26.160Z,39.75
2022-10-19T12:00:14.134Z,45.72
2022-10-19T12:03:44.787Z,40.33
2022-10-19T12:06:43.005Z,37.92
2022-10-19T12:09:09.464Z,31.92
2022-10-19T12:11:54.511Z,49.28
2022-10-19T12:14:26.104Z,34.58
2022-10-19T12:16:58.604Z,39.92
2022-10-19T12:19:30.187Z,37.92
2022-10-19T12:22:01.925Z,45.15
2022-10-19T12:26:57.753Z,34.00
2022-10-19T12:29:28.363Z,46.83
2022-10-19T12:31:57.331Z,39.08
2022-10-19T12:34:37.115Z,46.55
2022-10-19T12:37:12.933Z,45.22
2022-10-19T12:40:01.011Z,46.83
2022-10-19T12:42:42.722Z,40.65
2022-10-19T12:45:30.487Z,43.47
2022-10-19T12:48:08.957Z,44.50
2022-10-19T12:50:53.954Z,127.80
2022-10-19T12:53:40.654Z,43.30
2022-10-19T12:56:10.144Z,36.65
2022-10-19T12:58:44.963Z,34.35
2022-10-19T13:01:28.222Z,50.13
2022-10-19T13:04:15.284Z,40.05
2022-10-19T13:06:45.098Z,34.80
2022-10-19T13:09:41.905Z,38.28
2022-10-19T13:12:21.920Z,36.47
2022-10-19T13:14:56.056Z,33.08
2022-10-19T13:17:35.109Z,45.47
2022-10-19T13:20:14.357Z,40.67
2022-10-19T13:22:49.023Z,45.58
2022-10-19T13:25:40.691Z,38.97
2022-10-19T13:28:13.018Z,47.00
2022-10-19T13:30:39.567Z,39.92
2022-10-19T13:33:31.689Z,46.22
2022-10-19T13:36:02.338Z,48.17
2022-10-19T13:38:31.989Z,36.83
2022-10-19T13:41:04.427Z,33.90
2022-10-19T13:43:55.518Z,40.38
2022-10-19T13:46:26.877Z,30.90
2022-10-19T13:49:02.540Z,45.47
2022-10-19T13:51:55.333Z,41.38
2022-10-19T13:55:04.081Z,38.22
2022-10-19T13:57:42.461Z,39.30
2022-10-19T14:00:15.336Z,35.17
2022-10-19T14:03:12.025Z,29.02
2022-10-19T14:05:41.641Z,31.52
2022-10-19T14:08:32.816Z,33.35
2022-10-19T14:11:07.857Z,34.75
2022-10-19T14:13:34.996Z,28.83
2022-10-19T14:16:09.910Z,32.78
2022-10-19T14:18:39.221Z,34.30
2022-10-19T14:21:09.568Z,33.65
2022-10-19T14:23:41.781Z,38.10
2022-10-19T14:26:21.967Z,34.10
2022-10-19T14:29:04.076Z,42.90
2022-10-19T14:31:37.270Z,37.13
2022-10-19T14:34:08.859Z,38.00
2022-10-19T14:36:39.131Z,33.83
2022-10-19T14:39:07.569Z,27.63
2022-10-19T14:41:37.255Z,33.60
2022-10-19T14:44:36.397Z,35.88
2022-10-19T14:47:15.996Z,34.08
2022-10-19T14:49:42.583Z,23.30
2022-10-19T14:52:13.831Z,26.00
2022-10-19T14:54:45.698Z,32.67
2022-10-19T14:57:27.458Z,30.13
2022-10-19T15:00:04.092Z,29.77
2022-10-19T15:02:32.798Z,30.60
2022-10-19T15:05:03.046Z,27.17
2022-10-19T15:07:39.702Z,36.97
2022-10-19T15:10:35.975Z,30.42
2022-10-19T15:13:06.428Z,25.98
2022-10-19T15:15:35.643Z,29.83
2022-10-19T15:18:02.333Z,32.83
2022-10-19T15:20:49.140Z,31.00
2022-10-19T15:23:45.994Z,30.70
2022-10-19T15:26:27.183Z,31.85
2022-10-19T15:28:55.281Z,24.00
2022-10-19T15:31:26.880Z,33.60
2022-10-19T15:34:00.794Z,30.75
2022-10-19T15:36:29.721Z,35.38
2022-10-19T15:39:17.998Z,32.45
2022-10-19T15:41:52.349Z,33.50
2022-10-19T15:44:55.127Z,38.53
2022-10-19T15:47:24.276Z,26.63
2022-10-19T15:49:56.208Z,24.90
2022-10-19T15:52:28.133Z,22.02
2022-10-19T15:54:57.758Z,29.08
2022-10-19T15:57:34.721Z,30.40
2022-10-19T16:00:25.050Z,27.67
2022-10-19T16:02:51.694Z,26.45
2022-10-19T16:05:28.810Z,26.77
2022-10-19T16:07:55.667Z,32.22
2022-10-19T16:10:27.855Z,27.27
2022-10-19T16:12:54.543Z,34.75
2022-10-19T16:15:26.958Z,30.08
2022-10-19T16:17:56.260Z,34.05
2022-10-19T16:20:27.621Z,25.25
2022-10-19T16:22:56.916Z,30.05
2022-10-19T16:25:23.930Z,24.88
2022-10-19T16:27:50.905Z,27.98
2022-10-19T16:30:17.814Z,33.35
2022-10-19T16:32:45.805Z,30.38
2022-10-19T16:35:15.755Z,30.33
2022-10-19T16:37:42.355Z,31.33
2022-10-19T16:40:10.580Z,33.00
2022-10-19T16:42:37.654Z,27.63
2022-10-19T16:45:06.662Z,29.40
2022-10-19T16:47:33.243Z,32.47
2022-10-19T16:50:04.403Z,29.75
2022-10-19T16:52:33.217Z,31.23
2022-10-19T16:55:00.415Z,28.25
2022-10-19T16:57:26.960Z,27.48
2022-10-19T16:59:58.972Z,31.92
2022-10-19T17:02:26.287Z,31.48
2022-10-19T17:04:53.142Z,32.08
2022-10-19T17:07:19.674Z,32.08
2022-10-19T17:09:52.292Z,32.80
2022-10-19T17:12:23.143Z,28.40
2022-10-19T17:14:51.288Z,31.90
2022-10-19T17:17:36.983Z,39.83
2022-10-19T17:20:04.050Z,33.88
2022-10-19T17:22:30.688Z,40.25
2022-10-19T17:24:57.344Z,35.38
2022-10-19T17:27:31.274Z,34.45
2022-10-19T17:29:58.106Z,30.65
2022-10-19T17:32:24.811Z,31.88
2022-10-19T17:34:57.963Z,38.92
2022-10-19T17:37:25.708Z,33.80
2022-10-19T17:39:55.440Z,35.38
2022-10-19T17:42:28.171Z,41.38
2022-10-19T17:44:54.954Z,45.30
2022-10-19T17:47:24.651Z,34.63
2022-10-19T17:49:51.278Z,36.50
2022-10-19T17:52:18.123Z,38.33
2022-10-19T17:54:54.651Z,43.50
2022-10-19T17:57:31.293Z,39.85
2022-10-19T17:59:58.334Z,29.85
2022-10-19T18:02:27.325Z,38.78
2022-10-19T18:04:53.953Z,32.17
2022-10-19T18:07:22.104Z,33.92
2022-10-19T18:09:48.712Z,44.30
2022-10-19T18:12:18.023Z,41.92
2022-10-19T18:14:45.228Z,40.35
2022-10-19T18:17:12.194Z,38.97
2022-10-19T18:19:41.081Z,40.53
2022-10-19T18:22:08.823Z,34.47
2022-10-19T18:24:41.014Z,45.45
2022-10-19T18:27:10.188Z,43.42
2022-10-19T18:29:36.838Z,43.38
2022-10-19T18:34:32.972Z,40.00
2022-10-19T18:37:00.644Z,45.13
2022-10-19T18:39:27.426Z,41.78
2022-10-19T18:41:56.957Z,47.10
2022-10-19T18:44:33.770Z,39.78
2022-10-19T18:47:02.682Z,44.10
2022-10-19T18:49:32.396Z,38.85
2022-10-19T18:51:59.009Z,34.50
2022-10-19T18:54:29.197Z,30.20
2022-10-19T18:56:55.846Z,50.85
2022-10-19T18:59:31.183Z,35.40
2022-10-19T19:01:57.819Z,35.15
2022-10-19T19:04:24.404Z,46.65
2022-10-19T19:06:52.408Z,38.92
2022-10-19T19:09:19.592Z,35.78
2022-10-19T19:11:46.280Z,41.08
2022-10-19T19:14:18.813Z,40.33
2022-10-19T19:16:46.055Z,39.72
2022-10-19T19:19:15.086Z,42.20
2022-10-19T19:21:44.887Z,45.20
2022-10-19T19:24:18.143Z,48.40
2022-10-19T19:26:52.450Z,41.65
2022-10-19T19:29:20.740Z,50.22
2022-10-19T19:31:48.532Z,49.35
2022-10-19T19:34:16.537Z,48.75
2022-10-19T19:36:48.401Z,37.47
2022-10-19T19:39:18.773Z,44.67
2022-10-19T19:41:46.157Z,34.63
2022-10-19T19:44:12.987Z,43.30
2022-10-19T19:46:39.564Z,42.58
2022-10-19T19:49:07.438Z,38.58
2022-10-19T19:51:34.638Z,41.65
2022-10-19T19:54:01.652Z,43.97
2022-10-19T19:56:31.114Z,41.47
2022-10-19T19:59:00.057Z,38.05
2022-10-19T20:01:27.279Z,40.65
2022-10-19T20:03:53.992Z,39.70
2022-10-19T20:06:23.666Z,38.13
2022-10-19T20:11:24.381Z,43.08
2022-10-19T20:13:51.416Z,35.22
2022-10-19T20:16:22.795Z,34.30
2022-10-19T20:18:57.041Z,45.75
2022-10-19T20:23:52.248Z,31.73
2022-10-19T20:26:23.483Z,30.33
2022-10-19T20:28:50.694Z,35.80
2022-10-19T20:31:17.867Z,38.10
2022-10-19T20:33:47.302Z,36.90
2022-10-19T20:36:22.638Z,38.25
2022-10-19T20:38:55.598Z,38.80
2022-10-19T20:41:28.696Z,34.17
2022-10-19T20:43:56.222Z,31.58
2022-10-19T20:46:28.628Z,32.10
2022-10-19T20:48:58.568Z,34.67
2022-10-19T20:51:36.878Z,37.13
2022-10-19T20:54:07.009Z,36.63
2022-10-19T20:56:42.458Z,36.58
2022-10-19T20:59:14.812Z,36.03
2022-10-19T21:01:49.927Z,37.60
2022-10-19T21:04:16.933Z,37.92
2022-10-19T21:06:46.042Z,35.25
2022-10-19T21:09:16.277Z,40.85
2022-10-19T21:11:47.468Z,39.55
2022-10-19T21:14:17.011Z,36.92
2022-10-19T21:16:43.728Z,40.85
2022-10-19T21:19:23.972Z,38.88
2022-10-19T21:21:55.597Z,36.10
2022-10-19T21:24:30.306Z,38.20
2022-10-19T21:27:07.660Z,38.50
2022-10-19T21:29:34.794Z,33.78
2022-10-19T21:32:05.698Z,32.53
2022-10-19T21:34:32.723Z,38.20
2022-10-19T21:36:59.698Z,34.33
2022-10-19T21:39:32.255Z,33.28
2022-10-19T21:41:58.866Z,35.05
2022-10-19T21:44:25.501Z,33.70
2022-10-19T21:46:52.180Z,36.35
2022-10-19T21:49:22.630Z,38.80
2022-10-19T21:51:51.826Z,39.67
2022-10-19T21:54:21.265Z,39.35
2022-10-19T21:56:48.565Z,38.80
2022-10-19T21:59:20.369Z,37.45
2022-10-19T22:04:16.314Z,36.95
2022-10-19T22:06:43.811Z,38.63
2022-10-19T22:09:17.616Z,33.05
2022-10-19T22:11:44.861Z,33.28
2022-10-19T22:14:13.305Z,36.63
2022-10-19T22:16:46.054Z,38.17
2022-10-19T22:19:29.413Z,37.78
2022-10-19T22:21:55.994Z,36.10
2022-10-19T22:24:22.596Z,41.42
2022-10-19T22:26:50.807Z,38.10
2022-10-19T22:29:22.687Z,37.90
2022-10-19T22:34:16.829Z,39.65
2022-10-19T22:36:44.654Z,44.20
2022-10-19T22:39:11.354Z,36.80
2022-10-19T22:41:43.550Z,39.97
2022-10-19T22:44:10.258Z,39.65
2022-10-19T22:46:36.817Z,30.63
2022-10-19T22:49:03.986Z,39.80
2022-10-19T22:51:30.606Z,34.17
2022-10-19T22:54:00.249Z,37.85
2022-10-19T22:56:45.257Z,38.00
2022-10-19T22:59:11.811Z,34.35
2022-10-19T23:01:41.158Z,37.17
2022-10-19T23:04:13.787Z,36.47
2022-10-19T23:06:42.092Z,38.60
2022-10-19T23:09:09.653Z,33.92
2022-10-19T23:11:38.991Z,35.60
2022-10-19T23:14:05.789Z,36.42
2022-10-19T23:16:33.771Z,38.17
2022-10-19T23:19:00.449Z,34.13
2022-10-19T23:21:27.190Z,35.83
2022-10-19T23:23:59.281Z,35.97
2022-10-19T23:26:26.248Z,38.35
2022-10-19T23:28:53.322Z,41.65
2022-10-19T23:31:27.005Z,38.75
2022-10-19T23:33:53.992Z,37.90
2022-10-19T23:36:23.789Z,33.92
2022-10-19T23:38:52.073Z,47.22
2022-10-19T23:41:19.396Z,40.97
2022-10-19T23:43:48.264Z,37.80
2022-10-19T23:46:15.056Z,41.22
2022-10-19T23:48:42.195Z,35.95
2022-10-19T23:51:14.929Z,37.08
2022-10-19T23:53:43.774Z,38.60
2022-10-19T23:56:13.622Z,38.67
2022-10-19T23:58:40.357Z,36.03
